sensor_id;sensor_type;location;lat;lon;timestamp;P1;durP1;ratioP1;P2;durP2;ratioP2
16440;SDS011;8330;-33.858;151.184;2022-12-26T00:02:27;8.60;;;4.55;;
16440;SDS011;8330;-33.858;151.184;2022-12-26T00:04:58;7.13;;;4.53;;
16440;SDS011;8330;-33.858;151.184;2022-12-26T00:07:29;7.25;;;4.30;;
16440;SDS011;8330;-33.858;151.184;2022-12-26T00:10:00;7.63;;;4.20;;
16440;SDS011;8330;-33.858;151.184;2022-12-26T00:12:32;7.00;;;4.00;;
16440;SDS011;8330;-33.858;151.184;2022-12-26T00:15:04;7.25;;;3.90;;
16440;SDS011;8330;-33.858;151.184;2022-12-26T00:17:37;7.45;;;4.28;;
16440;SDS011;8330;-33.858;151.184;2022-12-26T00:20:08;6.55;;;4.22;;
16440;SDS011;8330;-33.858;151.184;2022-12-26T00:22:40;7.25;;;4.00;;
16440;SDS011;8330;-33.858;151.184;2022-12-26T00:25:10;7.85;;;4.10;;
16440;SDS011;8330;-33.858;151.184;2022-12-26T00:27:41;9.57;;;4.60;;
16440;SDS011;8330;-33.858;151.184;2022-12-26T00:30:14;6.70;;;4.35;;
16440;SDS011;8330;-33.858;151.184;2022-12-26T00:32:45;8.15;;;4.15;;
16440;SDS011;8330;-33.858;151.184;2022-12-26T00:35:16;6.45;;;4.05;;
16440;SDS011;8330;-33.858;151.184;2022-12-26T00:37:47;7.45;;;3.90;;
16440;SDS011;8330;-33.858;151.184;2022-12-26T00:40:18;5.97;;;3.50;;
16440;SDS011;8330;-33.858;151.184;2022-12-26T00:42:49;6.97;;;3.60;;
16440;SDS011;8330;-33.858;151.184;2022-12-26T00:45:21;4.40;;;2.95;;
16440;SDS011;8330;-33.858;151.184;2022-12-26T00:47:52;5.88;;;3.28;;
16440;SDS011;8330;-33.858;151.184;2022-12-26T00:50:23;7.90;;;3.40;;
16440;SDS011;8330;-33.858;151.184;2022-12-26T00:52:54;7.95;;;2.97;;
16440;SDS011;8330;-33.858;151.184;2022-12-26T00:55:24;3.85;;;2.38;;
16440;SDS011;8330;-33.858;151.184;2022-12-26T00:57:55;3.92;;;2.17;;
16440;SDS011;8330;-33.858;151.184;2022-12-26T01:00:28;7.57;;;2.28;;
16440;SDS011;8330;-33.858;151.184;2022-12-26T01:02:59;6.80;;;1.83;;
16440;SDS011;8330;-33.858;151.184;2022-12-26T01:05:30;5.47;;;2.55;;
16440;SDS011;8330;-33.858;151.184;2022-12-26T01:08:01;5.53;;;2.05;;
16440;SDS011;8330;-33.858;151.184;2022-12-26T01:10:32;6.03;;;1.83;;
16440;SDS011;8330;-33.858;151.184;2022-12-26T01:13:03;5.90;;;1.80;;
16440;SDS011;8330;-33.858;151.184;2022-12-26T01:15:35;5.78;;;1.75;;
16440;SDS011;8330;-33.858;151.184;2022-12-26T01:18:06;5.40;;;1.90;;
16440;SDS011;8330;-33.858;151.184;2022-12-26T01:20:37;4.30;;;1.70;;
16440;SDS011;8330;-33.858;151.184;2022-12-26T01:23:08;6.40;;;1.70;;
16440;SDS011;8330;-33.858;151.184;2022-12-26T01:25:38;5.22;;;1.95;;
16440;SDS011;8330;-33.858;151.184;2022-12-26T01:28:09;4.93;;;1.80;;
16440;SDS011;8330;-33.858;151.184;2022-12-26T01:30:42;9.52;;;2.38;;
16440;SDS011;8330;-33.858;151.184;2022-12-26T01:33:13;7.78;;;1.77;;
16440;SDS011;8330;-33.858;151.184;2022-12-26T01:35:50;6.13;;;1.90;;
16440;SDS011;8330;-33.858;151.184;2022-12-26T01:38:21;7.30;;;1.92;;
16440;SDS011;8330;-33.858;151.184;2022-12-26T01:40:53;6.53;;;1.90;;
16440;SDS011;8330;-33.858;151.184;2022-12-26T01:43:55;4.70;;;1.30;;
16440;SDS011;8330;-33.858;151.184;2022-12-26T01:46:30;5.25;;;1.73;;
16440;SDS011;8330;-33.858;151.184;2022-12-26T01:49:06;4.82;;;1.35;;
16440;SDS011;8330;-33.858;151.184;2022-12-26T01:51:42;7.20;;;1.48;;
16440;SDS011;8330;-33.858;151.184;2022-12-26T01:54:16;7.70;;;1.67;;
16440;SDS011;8330;-33.858;151.184;2022-12-26T01:56:48;8.02;;;1.52;;
16440;SDS011;8330;-33.858;151.184;2022-12-26T01:59:19;3.40;;;1.23;;
16440;SDS011;8330;-33.858;151.184;2022-12-26T02:01:55;3.92;;;1.30;;
16440;SDS011;8330;-33.858;151.184;2022-12-26T02:04:28;5.50;;;1.55;;
16440;SDS011;8330;-33.858;151.184;2022-12-26T02:07:18;3.72;;;1.30;;
16440;SDS011;8330;-33.858;151.184;2022-12-26T02:09:50;7.35;;;1.40;;
16440;SDS011;8330;-33.858;151.184;2022-12-26T02:12:22;2.92;;;1.10;;
16440;SDS011;8330;-33.858;151.184;2022-12-26T02:14:57;2.30;;;1.08;;
16440;SDS011;8330;-33.858;151.184;2022-12-26T02:17:31;5.40;;;1.27;;
16440;SDS011;8330;-33.858;151.184;2022-12-26T02:20:04;5.88;;;1.20;;
16440;SDS011;8330;-33.858;151.184;2022-12-26T02:23:08;4.43;;;1.27;;
16440;SDS011;8330;-33.858;151.184;2022-12-26T02:29:15;3.35;;;1.10;;
16440;SDS011;8330;-33.858;151.184;2022-12-26T02:32:07;2.88;;;1.20;;
16440;SDS011;8330;-33.858;151.184;2022-12-26T02:34:48;2.80;;;1.13;;
16440;SDS011;8330;-33.858;151.184;2022-12-26T02:37:29;2.40;;;1.20;;
16440;SDS011;8330;-33.858;151.184;2022-12-26T02:40:18;5.65;;;1.40;;
16440;SDS011;8330;-33.858;151.184;2022-12-26T02:43:01;6.05;;;1.27;;
16440;SDS011;8330;-33.858;151.184;2022-12-26T02:45:37;4.10;;;1.10;;
16440;SDS011;8330;-33.858;151.184;2022-12-26T02:48:31;6.90;;;1.52;;
16440;SDS011;8330;-33.858;151.184;2022-12-26T02:51:12;3.35;;;1.10;;
16440;SDS011;8330;-33.858;151.184;2022-12-26T02:54:08;6.03;;;1.35;;
16440;SDS011;8330;-33.858;151.184;2022-12-26T02:57:18;2.65;;;1.25;;
16440;SDS011;8330;-33.858;151.184;2022-12-26T03:00:07;4.43;;;1.10;;
16440;SDS011;8330;-33.858;151.184;2022-12-26T03:02:59;3.85;;;1.50;;
16440;SDS011;8330;-33.858;151.184;2022-12-26T03:05:49;5.90;;;1.52;;
16440;SDS011;8330;-33.858;151.184;2022-12-26T03:08:40;4.25;;;1.30;;
16440;SDS011;8330;-33.858;151.184;2022-12-26T03:11:31;8.27;;;2.03;;
16440;SDS011;8330;-33.858;151.184;2022-12-26T03:14:23;4.75;;;1.48;;
16440;SDS011;8330;-33.858;151.184;2022-12-26T03:16:58;7.40;;;1.50;;
16440;SDS011;8330;-33.858;151.184;2022-12-26T03:19:48;5.82;;;1.48;;
16440;SDS011;8330;-33.858;151.184;2022-12-26T03:22:33;5.22;;;1.40;;
16440;SDS011;8330;-33.858;151.184;2022-12-26T03:25:10;10.13;;;2.13;;
16440;SDS011;8330;-33.858;151.184;2022-12-26T03:28:01;8.85;;;1.42;;
16440;SDS011;8330;-33.858;151.184;2022-12-26T03:30:33;4.65;;;1.50;;
16440;SDS011;8330;-33.858;151.184;2022-12-26T03:33:23;3.85;;;1.40;;
16440;SDS011;8330;-33.858;151.184;2022-12-26T03:36:11;4.25;;;1.33;;
16440;SDS011;8330;-33.858;151.184;2022-12-26T03:38:49;6.63;;;1.30;;
16440;SDS011;8330;-33.858;151.184;2022-12-26T03:41:34;5.75;;;1.52;;
16440;SDS011;8330;-33.858;151.184;2022-12-26T03:44:43;6.97;;;1.35;;
16440;SDS011;8330;-33.858;151.184;2022-12-26T03:47:39;3.92;;;0.90;;
16440;SDS011;8330;-33.858;151.184;2022-12-26T03:50:31;4.50;;;1.25;;
16440;SDS011;8330;-33.858;151.184;2022-12-26T03:53:23;4.72;;;1.38;;
16440;SDS011;8330;-33.858;151.184;2022-12-26T03:56:15;7.05;;;1.30;;
16440;SDS011;8330;-33.858;151.184;2022-12-26T03:59:08;6.13;;;1.50;;
16440;SDS011;8330;-33.858;151.184;2022-12-26T04:01:59;4.20;;;1.17;;
16440;SDS011;8330;-33.858;151.184;2022-12-26T04:04:49;6.85;;;1.33;;
16440;SDS011;8330;-33.858;151.184;2022-12-26T04:07:42;8.43;;;1.58;;
16440;SDS011;8330;-33.858;151.184;2022-12-26T04:10:34;4.68;;;1.20;;
16440;SDS011;8330;-33.858;151.184;2022-12-26T04:13:29;6.25;;;1.23;;
16440;SDS011;8330;-33.858;151.184;2022-12-26T04:16:30;5.22;;;1.30;;
16440;SDS011;8330;-33.858;151.184;2022-12-26T04:19:26;4.43;;;1.30;;
16440;SDS011;8330;-33.858;151.184;2022-12-26T04:22:11;4.45;;;1.45;;
16440;SDS011;8330;-33.858;151.184;2022-12-26T04:25:04;4.30;;;1.10;;
16440;SDS011;8330;-33.858;151.184;2022-12-26T04:27:54;9.05;;;1.10;;
16440;SDS011;8330;-33.858;151.184;2022-12-26T04:30:43;2.65;;;0.90;;
16440;SDS011;8330;-33.858;151.184;2022-12-26T04:33:35;3.67;;;1.10;;
16440;SDS011;8330;-33.858;151.184;2022-12-26T04:36:28;6.85;;;1.27;;
16440;SDS011;8330;-33.858;151.184;2022-12-26T04:39:17;3.85;;;0.98;;
16440;SDS011;8330;-33.858;151.184;2022-12-26T04:42:09;2.92;;;0.90;;
16440;SDS011;8330;-33.858;151.184;2022-12-26T04:44:58;3.80;;;1.00;;
16440;SDS011;8330;-33.858;151.184;2022-12-26T04:47:32;2.97;;;0.90;;
16440;SDS011;8330;-33.858;151.184;2022-12-26T04:50:04;5.50;;;1.10;;
16440;SDS011;8330;-33.858;151.184;2022-12-26T04:52:40;6.85;;;1.10;;
16440;SDS011;8330;-33.858;151.184;2022-12-26T04:55:26;5.60;;;1.20;;
16440;SDS011;8330;-33.858;151.184;2022-12-26T04:57:58;5.32;;;1.27;;
16440;SDS011;8330;-33.858;151.184;2022-12-26T05:00:29;2.67;;;0.82;;
16440;SDS011;8330;-33.858;151.184;2022-12-26T05:03:02;3.25;;;0.90;;
16440;SDS011;8330;-33.858;151.184;2022-12-26T05:05:49;4.15;;;1.05;;
16440;SDS011;8330;-33.858;151.184;2022-12-26T05:08:35;3.55;;;0.90;;
16440;SDS011;8330;-33.858;151.184;2022-12-26T05:11:23;4.38;;;1.20;;
16440;SDS011;8330;-33.858;151.184;2022-12-26T05:13:55;4.38;;;1.10;;
16440;SDS011;8330;-33.858;151.184;2022-12-26T05:16:27;7.65;;;1.13;;
16440;SDS011;8330;-33.858;151.184;2022-12-26T05:19:16;3.80;;;1.10;;
16440;SDS011;8330;-33.858;151.184;2022-12-26T05:22:03;4.38;;;1.25;;
16440;SDS011;8330;-33.858;151.184;2022-12-26T05:24:50;3.28;;;1.08;;
16440;SDS011;8330;-33.858;151.184;2022-12-26T05:27:45;5.38;;;1.20;;
16440;SDS011;8330;-33.858;151.184;2022-12-26T05:30:32;2.90;;;0.93;;
16440;SDS011;8330;-33.858;151.184;2022-12-26T05:33:03;3.25;;;0.90;;
16440;SDS011;8330;-33.858;151.184;2022-12-26T05:35:52;2.78;;;0.90;;
16440;SDS011;8330;-33.858;151.184;2022-12-26T05:38:23;6.22;;;1.00;;
16440;SDS011;8330;-33.858;151.184;2022-12-26T05:40:54;6.50;;;1.50;;
16440;SDS011;8330;-33.858;151.184;2022-12-26T05:43:25;3.20;;;0.85;;
16440;SDS011;8330;-33.858;151.184;2022-12-26T05:45:56;5.38;;;1.23;;
16440;SDS011;8330;-33.858;151.184;2022-12-26T05:48:27;3.63;;;1.10;;
16440;SDS011;8330;-33.858;151.184;2022-12-26T05:51:00;4.75;;;1.20;;
16440;SDS011;8330;-33.858;151.184;2022-12-26T05:53:31;4.72;;;1.52;;
16440;SDS011;8330;-33.858;151.184;2022-12-26T05:56:03;3.92;;;1.10;;
16440;SDS011;8330;-33.858;151.184;2022-12-26T05:58:34;3.30;;;1.30;;
16440;SDS011;8330;-33.858;151.184;2022-12-26T06:01:06;5.10;;;1.20;;
16440;SDS011;8330;-33.858;151.184;2022-12-26T06:03:38;6.85;;;1.63;;
16440;SDS011;8330;-33.858;151.184;2022-12-26T06:06:12;2.17;;;0.95;;
16440;SDS011;8330;-33.858;151.184;2022-12-26T06:08:47;3.80;;;0.88;;
16440;SDS011;8330;-33.858;151.184;2022-12-26T06:11:19;2.17;;;1.00;;
16440;SDS011;8330;-33.858;151.184;2022-12-26T06:13:51;3.88;;;1.02;;
16440;SDS011;8330;-33.858;151.184;2022-12-26T06:16:22;5.45;;;1.33;;
16440;SDS011;8330;-33.858;151.184;2022-12-26T06:18:53;5.85;;;1.30;;
16440;SDS011;8330;-33.858;151.184;2022-12-26T06:21:26;3.75;;;1.20;;
16440;SDS011;8330;-33.858;151.184;2022-12-26T06:23:57;4.00;;;1.30;;
16440;SDS011;8330;-33.858;151.184;2022-12-26T06:26:27;5.00;;;1.10;;
16440;SDS011;8330;-33.858;151.184;2022-12-26T06:28:58;4.82;;;1.10;;
16440;SDS011;8330;-33.858;151.184;2022-12-26T06:31:29;5.35;;;1.27;;
16440;SDS011;8330;-33.858;151.184;2022-12-26T06:34:00;3.10;;;1.20;;
16440;SDS011;8330;-33.858;151.184;2022-12-26T06:36:33;3.97;;;1.08;;
16440;SDS011;8330;-33.858;151.184;2022-12-26T06:39:04;4.57;;;1.13;;
16440;SDS011;8330;-33.858;151.184;2022-12-26T06:41:36;4.05;;;1.17;;
16440;SDS011;8330;-33.858;151.184;2022-12-26T06:44:10;5.20;;;1.10;;
16440;SDS011;8330;-33.858;151.184;2022-12-26T06:46:41;3.80;;;1.25;;
16440;SDS011;8330;-33.858;151.184;2022-12-26T06:49:11;3.75;;;1.25;;
16440;SDS011;8330;-33.858;151.184;2022-12-26T06:51:45;4.38;;;1.20;;
16440;SDS011;8330;-33.858;151.184;2022-12-26T06:54:16;3.83;;;1.00;;
16440;SDS011;8330;-33.858;151.184;2022-12-26T06:56:47;3.38;;;1.13;;
16440;SDS011;8330;-33.858;151.184;2022-12-26T06:59:18;3.10;;;1.05;;
16440;SDS011;8330;-33.858;151.184;2022-12-26T07:01:52;2.55;;;1.08;;
16440;SDS011;8330;-33.858;151.184;2022-12-26T07:04:23;3.50;;;1.10;;
16440;SDS011;8330;-33.858;151.184;2022-12-26T07:06:56;4.63;;;1.10;;
16440;SDS011;8330;-33.858;151.184;2022-12-26T07:09:27;3.67;;;1.13;;
16440;SDS011;8330;-33.858;151.184;2022-12-26T07:11:57;3.40;;;1.20;;
16440;SDS011;8330;-33.858;151.184;2022-12-26T07:14:28;5.32;;;1.35;;
16440;SDS011;8330;-33.858;151.184;2022-12-26T07:16:59;5.03;;;1.20;;
16440;SDS011;8330;-33.858;151.184;2022-12-26T07:19:30;4.22;;;1.27;;
16440;SDS011;8330;-33.858;151.184;2022-12-26T07:22:03;4.05;;;1.25;;
16440;SDS011;8330;-33.858;151.184;2022-12-26T07:24:35;2.47;;;1.05;;
16440;SDS011;8330;-33.858;151.184;2022-12-26T07:27:06;2.90;;;1.10;;
16440;SDS011;8330;-33.858;151.184;2022-12-26T07:29:37;4.10;;;1.63;;
16440;SDS011;8330;-33.858;151.184;2022-12-26T07:32:07;4.05;;;1.20;;
16440;SDS011;8330;-33.858;151.184;2022-12-26T07:34:38;3.83;;;1.23;;
16440;SDS011;8330;-33.858;151.184;2022-12-26T07:37:12;4.82;;;1.48;;
16440;SDS011;8330;-33.858;151.184;2022-12-26T07:39:43;3.30;;;1.27;;
16440;SDS011;8330;-33.858;151.184;2022-12-26T07:42:14;3.90;;;1.20;;
16440;SDS011;8330;-33.858;151.184;2022-12-26T07:44:47;3.65;;;1.10;;
16440;SDS011;8330;-33.858;151.184;2022-12-26T07:47:18;3.40;;;1.02;;
16440;SDS011;8330;-33.858;151.184;2022-12-26T07:49:49;3.42;;;1.10;;
16440;SDS011;8330;-33.858;151.184;2022-12-26T07:52:22;4.80;;;1.10;;
16440;SDS011;8330;-33.858;151.184;2022-12-26T07:54:53;3.53;;;1.05;;
16440;SDS011;8330;-33.858;151.184;2022-12-26T07:57:24;6.68;;;1.00;;
16440;SDS011;8330;-33.858;151.184;2022-12-26T07:59:55;4.97;;;1.23;;
16440;SDS011;8330;-33.858;151.184;2022-12-26T08:02:26;5.20;;;2.00;;
16440;SDS011;8330;-33.858;151.184;2022-12-26T08:04:57;4.72;;;1.40;;
16440;SDS011;8330;-33.858;151.184;2022-12-26T08:07:30;2.92;;;1.25;;
16440;SDS011;8330;-33.858;151.184;2022-12-26T08:10:01;3.75;;;1.80;;
16440;SDS011;8330;-33.858;151.184;2022-12-26T08:12:34;3.95;;;1.60;;
16440;SDS011;8330;-33.858;151.184;2022-12-26T08:15:05;7.03;;;2.60;;
16440;SDS011;8330;-33.858;151.184;2022-12-26T08:17:37;3.90;;;1.73;;
16440;SDS011;8330;-33.858;151.184;2022-12-26T08:20:09;6.03;;;2.28;;
16440;SDS011;8330;-33.858;151.184;2022-12-26T08:22:42;5.05;;;1.63;;
16440;SDS011;8330;-33.858;151.184;2022-12-26T08:25:13;6.53;;;1.80;;
16440;SDS011;8330;-33.858;151.184;2022-12-26T08:27:44;4.63;;;1.52;;
16440;SDS011;8330;-33.858;151.184;2022-12-26T08:30:15;5.63;;;1.20;;
16440;SDS011;8330;-33.858;151.184;2022-12-26T08:32:47;5.15;;;1.50;;
16440;SDS011;8330;-33.858;151.184;2022-12-26T08:35:19;6.38;;;1.30;;
16440;SDS011;8330;-33.858;151.184;2022-12-26T08:37:52;4.65;;;1.17;;
16440;SDS011;8330;-33.858;151.184;2022-12-26T08:40:22;5.45;;;1.38;;
16440;SDS011;8330;-33.858;151.184;2022-12-26T08:42:53;2.95;;;1.20;;
16440;SDS011;8330;-33.858;151.184;2022-12-26T08:45:24;4.22;;;1.38;;
16440;SDS011;8330;-33.858;151.184;2022-12-26T08:47:55;6.38;;;1.30;;
16440;SDS011;8330;-33.858;151.184;2022-12-26T08:50:28;6.93;;;1.08;;
16440;SDS011;8330;-33.858;151.184;2022-12-26T08:53:00;4.85;;;1.30;;
16440;SDS011;8330;-33.858;151.184;2022-12-26T08:55:31;8.82;;;1.60;;
16440;SDS011;8330;-33.858;151.184;2022-12-26T08:58:02;5.30;;;1.30;;
16440;SDS011;8330;-33.858;151.184;2022-12-26T09:00:33;4.90;;;1.35;;
16440;SDS011;8330;-33.858;151.184;2022-12-26T09:03:04;5.07;;;1.58;;
16440;SDS011;8330;-33.858;151.184;2022-12-26T09:05:34;6.05;;;1.30;;
16440;SDS011;8330;-33.858;151.184;2022-12-26T09:08:07;6.80;;;1.40;;
16440;SDS011;8330;-33.858;151.184;2022-12-26T09:10:38;5.35;;;1.23;;
16440;SDS011;8330;-33.858;151.184;2022-12-26T09:13:09;7.63;;;1.52;;
16440;SDS011;8330;-33.858;151.184;2022-12-26T09:15:40;3.80;;;1.30;;
16440;SDS011;8330;-33.858;151.184;2022-12-26T09:18:11;7.68;;;1.60;;
16440;SDS011;8330;-33.858;151.184;2022-12-26T09:20:42;5.20;;;1.40;;
16440;SDS011;8330;-33.858;151.184;2022-12-26T09:23:15;8.02;;;1.40;;
16440;SDS011;8330;-33.858;151.184;2022-12-26T09:25:46;7.95;;;1.58;;
16440;SDS011;8330;-33.858;151.184;2022-12-26T09:28:17;7.07;;;1.55;;
16440;SDS011;8330;-33.858;151.184;2022-12-26T09:30:48;5.07;;;1.40;;
16440;SDS011;8330;-33.858;151.184;2022-12-26T09:33:19;6.50;;;1.70;;
16440;SDS011;8330;-33.858;151.184;2022-12-26T09:35:50;9.60;;;1.52;;
16440;SDS011;8330;-33.858;151.184;2022-12-26T09:38:23;6.75;;;1.58;;
16440;SDS011;8330;-33.858;151.184;2022-12-26T09:40:56;4.15;;;1.27;;
16440;SDS011;8330;-33.858;151.184;2022-12-26T09:43:43;6.20;;;1.45;;
16440;SDS011;8330;-33.858;151.184;2022-12-26T09:46:27;4.40;;;1.30;;
16440;SDS011;8330;-33.858;151.184;2022-12-26T09:49:04;6.53;;;1.48;;
16440;SDS011;8330;-33.858;151.184;2022-12-26T09:51:39;7.38;;;1.42;;
16440;SDS011;8330;-33.858;151.184;2022-12-26T09:54:17;8.27;;;1.40;;
16440;SDS011;8330;-33.858;151.184;2022-12-26T09:56:53;6.85;;;1.60;;
16440;SDS011;8330;-33.858;151.184;2022-12-26T09:59:28;5.03;;;1.40;;
16440;SDS011;8330;-33.858;151.184;2022-12-26T10:02:02;4.88;;;1.33;;
16440;SDS011;8330;-33.858;151.184;2022-12-26T10:04:38;5.38;;;1.35;;
16440;SDS011;8330;-33.858;151.184;2022-12-26T10:07:11;6.40;;;1.60;;
16440;SDS011;8330;-33.858;151.184;2022-12-26T10:12:44;5.18;;;1.27;;
16440;SDS011;8330;-33.858;151.184;2022-12-26T10:18:15;7.50;;;1.35;;
16440;SDS011;8330;-33.858;151.184;2022-12-26T10:23:57;6.15;;;1.42;;
16440;SDS011;8330;-33.858;151.184;2022-12-26T10:26:36;6.97;;;1.50;;
16440;SDS011;8330;-33.858;151.184;2022-12-26T10:29:11;6.20;;;1.38;;
16440;SDS011;8330;-33.858;151.184;2022-12-26T10:31:49;4.78;;;1.30;;
16440;SDS011;8330;-33.858;151.184;2022-12-26T10:34:26;8.93;;;1.30;;
16440;SDS011;8330;-33.858;151.184;2022-12-26T10:37:14;6.05;;;1.20;;
16440;SDS011;8330;-33.858;151.184;2022-12-26T10:39:52;4.88;;;1.35;;
16440;SDS011;8330;-33.858;151.184;2022-12-26T10:42:29;5.82;;;1.25;;
16440;SDS011;8330;-33.858;151.184;2022-12-26T10:45:11;6.13;;;1.30;;
16440;SDS011;8330;-33.858;151.184;2022-12-26T10:47:46;6.15;;;1.25;;
16440;SDS011;8330;-33.858;151.184;2022-12-26T10:50:21;6.43;;;1.27;;
16440;SDS011;8330;-33.858;151.184;2022-12-26T10:52:57;9.18;;;1.50;;
16440;SDS011;8330;-33.858;151.184;2022-12-26T10:55:47;8.23;;;1.70;;
16440;SDS011;8330;-33.858;151.184;2022-12-26T10:58:21;5.18;;;1.27;;
16440;SDS011;8330;-33.858;151.184;2022-12-26T11:01:02;5.70;;;1.30;;
16440;SDS011;8330;-33.858;151.184;2022-12-26T11:04:01;3.78;;;1.40;;
16440;SDS011;8330;-33.858;151.184;2022-12-26T11:06:54;9.00;;;1.80;;
16440;SDS011;8330;-33.858;151.184;2022-12-26T11:09:32;7.53;;;1.65;;
16440;SDS011;8330;-33.858;151.184;2022-12-26T11:12:19;8.85;;;1.70;;
16440;SDS011;8330;-33.858;151.184;2022-12-26T11:14:58;4.40;;;1.15;;
16440;SDS011;8330;-33.858;151.184;2022-12-26T11:17:32;6.65;;;1.38;;
16440;SDS011;8330;-33.858;151.184;2022-12-26T11:20:09;8.93;;;1.45;;
16440;SDS011;8330;-33.858;151.184;2022-12-26T11:22:54;5.38;;;1.35;;
16440;SDS011;8330;-33.858;151.184;2022-12-26T11:25:51;9.07;;;1.80;;
16440;SDS011;8330;-33.858;151.184;2022-12-26T11:28:27;6.18;;;1.45;;
16440;SDS011;8330;-33.858;151.184;2022-12-26T11:31:05;8.52;;;1.40;;
16440;SDS011;8330;-33.858;151.184;2022-12-26T11:33:48;6.65;;;1.48;;
16440;SDS011;8330;-33.858;151.184;2022-12-26T11:36:20;4.55;;;1.20;;
16440;SDS011;8330;-33.858;151.184;2022-12-26T11:38:55;6.57;;;1.60;;
16440;SDS011;8330;-33.858;151.184;2022-12-26T11:41:33;7.70;;;1.30;;
16440;SDS011;8330;-33.858;151.184;2022-12-26T11:44:13;8.43;;;1.65;;
16440;SDS011;8330;-33.858;151.184;2022-12-26T11:46:55;7.28;;;1.67;;
16440;SDS011;8330;-33.858;151.184;2022-12-26T11:49:29;6.82;;;1.60;;
16440;SDS011;8330;-33.858;151.184;2022-12-26T11:57:58;5.15;;;1.42;;
16440;SDS011;8330;-33.858;151.184;2022-12-26T12:00:31;5.43;;;1.40;;
16440;SDS011;8330;-33.858;151.184;2022-12-26T12:03:08;7.45;;;1.55;;
16440;SDS011;8330;-33.858;151.184;2022-12-26T12:05:43;7.00;;;1.58;;
16440;SDS011;8330;-33.858;151.184;2022-12-26T12:11:16;6.10;;;1.55;;
16440;SDS011;8330;-33.858;151.184;2022-12-26T12:13:58;6.22;;;1.27;;
16440;SDS011;8330;-33.858;151.184;2022-12-26T12:16:51;7.40;;;1.35;;
16440;SDS011;8330;-33.858;151.184;2022-12-26T12:19:35;4.00;;;1.00;;
16440;SDS011;8330;-33.858;151.184;2022-12-26T12:22:34;6.97;;;1.50;;
16440;SDS011;8330;-33.858;151.184;2022-12-26T12:28:27;6.43;;;1.40;;
16440;SDS011;8330;-33.858;151.184;2022-12-26T12:31:19;5.00;;;1.50;;
16440;SDS011;8330;-33.858;151.184;2022-12-26T12:34:00;7.45;;;1.35;;
16440;SDS011;8330;-33.858;151.184;2022-12-26T12:36:47;6.18;;;1.55;;
16440;SDS011;8330;-33.858;151.184;2022-12-26T12:39:31;6.32;;;1.50;;
16440;SDS011;8330;-33.858;151.184;2022-12-26T12:45:08;7.30;;;1.55;;
16440;SDS011;8330;-33.858;151.184;2022-12-26T12:48:19;7.97;;;1.60;;
16440;SDS011;8330;-33.858;151.184;2022-12-26T12:51:02;7.43;;;1.50;;
16440;SDS011;8330;-33.858;151.184;2022-12-26T12:53:49;8.52;;;1.33;;
16440;SDS011;8330;-33.858;151.184;2022-12-26T12:56:33;5.22;;;1.20;;
16440;SDS011;8330;-33.858;151.184;2022-12-26T12:59:15;7.20;;;1.35;;
16440;SDS011;8330;-33.858;151.184;2022-12-26T13:01:57;8.75;;;1.52;;
16440;SDS011;8330;-33.858;151.184;2022-12-26T13:04:32;7.22;;;1.42;;
16440;SDS011;8330;-33.858;151.184;2022-12-26T13:07:08;7.50;;;1.38;;
16440;SDS011;8330;-33.858;151.184;2022-12-26T13:09:45;10.82;;;1.52;;
16440;SDS011;8330;-33.858;151.184;2022-12-26T13:12:20;6.95;;;1.25;;
16440;SDS011;8330;-33.858;151.184;2022-12-26T13:14:54;6.65;;;1.40;;
16440;SDS011;8330;-33.858;151.184;2022-12-26T13:17:30;6.22;;;1.65;;
16440;SDS011;8330;-33.858;151.184;2022-12-26T13:20:04;9.13;;;1.50;;
16440;SDS011;8330;-33.858;151.184;2022-12-26T13:22:43;7.63;;;1.58;;
16440;SDS011;8330;-33.858;151.184;2022-12-26T13:25:35;5.97;;;1.35;;
16440;SDS011;8330;-33.858;151.184;2022-12-26T13:28:11;7.43;;;1.35;;
16440;SDS011;8330;-33.858;151.184;2022-12-26T13:30:45;6.03;;;1.50;;
16440;SDS011;8330;-33.858;151.184;2022-12-26T13:33:22;6.40;;;1.25;;
16440;SDS011;8330;-33.858;151.184;2022-12-26T13:35:54;8.02;;;1.75;;
16440;SDS011;8330;-33.858;151.184;2022-12-26T13:41:41;6.20;;;1.30;;
16440;SDS011;8330;-33.858;151.184;2022-12-26T13:44:34;5.60;;;1.15;;
16440;SDS011;8330;-33.858;151.184;2022-12-26T13:55:58;5.55;;;1.30;;
16440;SDS011;8330;-33.858;151.184;2022-12-26T13:58:38;6.25;;;1.23;;
16440;SDS011;8330;-33.858;151.184;2022-12-26T14:01:22;7.57;;;1.70;;
16440;SDS011;8330;-33.858;151.184;2022-12-26T14:04:10;5.40;;;1.20;;
16440;SDS011;8330;-33.858;151.184;2022-12-26T14:07:01;7.30;;;1.50;;
16440;SDS011;8330;-33.858;151.184;2022-12-26T14:09:57;4.85;;;1.40;;
16440;SDS011;8330;-33.858;151.184;2022-12-26T14:12:40;5.57;;;1.38;;
16440;SDS011;8330;-33.858;151.184;2022-12-26T14:15:33;6.03;;;1.38;;
16440;SDS011;8330;-33.858;151.184;2022-12-26T14:18:21;6.38;;;1.35;;
16440;SDS011;8330;-33.858;151.184;2022-12-26T14:21:16;5.35;;;1.25;;
16440;SDS011;8330;-33.858;151.184;2022-12-26T14:23:56;5.35;;;1.30;;
16440;SDS011;8330;-33.858;151.184;2022-12-26T14:26:34;3.97;;;1.20;;
16440;SDS011;8330;-33.858;151.184;2022-12-26T14:29:18;3.65;;;1.10;;
16440;SDS011;8330;-33.858;151.184;2022-12-26T14:32:01;7.07;;;1.55;;
16440;SDS011;8330;-33.858;151.184;2022-12-26T14:34:46;5.82;;;1.33;;
16440;SDS011;8330;-33.858;151.184;2022-12-26T14:37:30;5.47;;;1.27;;
16440;SDS011;8330;-33.858;151.184;2022-12-26T14:43:06;6.32;;;1.27;;
16440;SDS011;8330;-33.858;151.184;2022-12-26T14:45:50;5.28;;;1.42;;
16440;SDS011;8330;-33.858;151.184;2022-12-26T14:51:38;7.32;;;1.60;;
16440;SDS011;8330;-33.858;151.184;2022-12-26T15:00:27;6.13;;;1.48;;
16440;SDS011;8330;-33.858;151.184;2022-12-26T15:03:15;8.07;;;1.60;;
16440;SDS011;8330;-33.858;151.184;2022-12-26T15:06:30;8.27;;;1.50;;
16440;SDS011;8330;-33.858;151.184;2022-12-26T15:09:23;7.75;;;1.75;;
16440;SDS011;8330;-33.858;151.184;2022-12-26T15:12:28;5.60;;;1.52;;
16440;SDS011;8330;-33.858;151.184;2022-12-26T15:24:39;5.38;;;1.40;;
16440;SDS011;8330;-33.858;151.184;2022-12-26T15:27:34;3.83;;;1.05;;
16440;SDS011;8330;-33.858;151.184;2022-12-26T15:30:40;6.35;;;1.30;;
16440;SDS011;8330;-33.858;151.184;2022-12-26T15:33:25;7.55;;;1.50;;
16440;SDS011;8330;-33.858;151.184;2022-12-26T15:36:03;4.13;;;1.30;;
16440;SDS011;8330;-33.858;151.184;2022-12-26T15:38:38;6.72;;;1.10;;
16440;SDS011;8330;-33.858;151.184;2022-12-26T15:41:16;5.05;;;1.17;;
16440;SDS011;8330;-33.858;151.184;2022-12-26T15:44:00;6.05;;;1.40;;
16440;SDS011;8330;-33.858;151.184;2022-12-26T15:46:46;7.90;;;1.58;;
16440;SDS011;8330;-33.858;151.184;2022-12-26T15:49:34;7.10;;;1.42;;
16440;SDS011;8330;-33.858;151.184;2022-12-26T15:52:14;6.25;;;1.38;;
16440;SDS011;8330;-33.858;151.184;2022-12-26T15:55:07;4.28;;;1.05;;
16440;SDS011;8330;-33.858;151.184;2022-12-26T15:57:53;4.53;;;1.23;;
16440;SDS011;8330;-33.858;151.184;2022-12-26T16:00:27;5.35;;;1.35;;
16440;SDS011;8330;-33.858;151.184;2022-12-26T16:03:04;4.72;;;1.35;;
16440;SDS011;8330;-33.858;151.184;2022-12-26T16:05:54;4.45;;;1.10;;
16440;SDS011;8330;-33.858;151.184;2022-12-26T16:11:31;4.07;;;1.10;;
16440;SDS011;8330;-33.858;151.184;2022-12-26T16:14:24;3.30;;;0.98;;
16440;SDS011;8330;-33.858;151.184;2022-12-26T16:17:10;4.25;;;1.33;;
16440;SDS011;8330;-33.858;151.184;2022-12-26T16:19:48;8.27;;;1.50;;
16440;SDS011;8330;-33.858;151.184;2022-12-26T16:22:23;4.63;;;1.30;;
16440;SDS011;8330;-33.858;151.184;2022-12-26T16:25:12;6.55;;;1.40;;
16440;SDS011;8330;-33.858;151.184;2022-12-26T16:27:48;7.75;;;1.20;;
16440;SDS011;8330;-33.858;151.184;2022-12-26T16:30:22;5.55;;;0.98;;
16440;SDS011;8330;-33.858;151.184;2022-12-26T16:32:55;4.72;;;1.30;;